Ansonia, Pennsylvania
Current Conditions -  °F | °C
As of 7:35 AM on Monday 26 Jan 2015 (Local Time) from KN38 Reporting Station
Light Rain Light Rain  
Wind Chill: -4°   Ceiling: 1800
Heat Index:   Visibility: 8mi
Dew Point:   Wind: 8mph
Humidity: 92%   Direction: 40°NE
Pressure: 29.81"   Gusts: NA
Location:  41.7308°N, 77.349°W
Report Text: KN38 261235Z AUTO 04007KT 8SM -RA OVC018 M13/M14 A2981 RMK AO2
Loading
Personal Weather Stations






























Interactive Weather Map New forecast layout! Learn more

10-Day Weather Forecast

Advertisements
Track Severe Weather on mobile